createdAt,value
2022-10-31T00:01:34.926Z,50.50
2022-10-31T00:04:37.862Z,54.20
2022-10-31T00:07:40.766Z,50.83
2022-10-31T00:10:43.987Z,49.83
2022-10-31T00:13:46.900Z,52.83
2022-10-31T00:16:49.800Z,55.25
2022-10-31T00:19:52.688Z,52.17
2022-10-31T00:22:58.322Z,54.55
2022-10-31T00:26:05.096Z,52.30
2022-10-31T00:29:08.036Z,54.30
2022-10-31T00:32:10.963Z,58.38
2022-10-31T00:35:13.935Z,55.28
2022-10-31T00:38:16.815Z,54.33
2022-10-31T00:41:19.862Z,51.20
2022-10-31T00:44:22.780Z,54.50
2022-10-31T00:47:25.691Z,59.45
2022-10-31T00:50:28.597Z,58.33
2022-10-31T00:53:31.599Z,53.67
2022-10-31T00:56:35.080Z,61.65
2022-10-31T00:59:38.063Z,53.83
2022-10-31T01:02:41.256Z,57.33
2022-10-31T01:05:44.452Z,58.67
2022-10-31T01:08:47.708Z,56.95
2022-10-31T01:11:50.613Z,55.67
2022-10-31T01:14:53.541Z,58.73
2022-10-31T01:17:56.668Z,58.38
2022-10-31T01:21:10.060Z,56.33
2022-10-31T01:24:12.960Z,50.75
2022-10-31T01:27:15.865Z,56.10
2022-10-31T01:30:18.799Z,53.73
2022-10-31T01:33:21.735Z,56.03
2022-10-31T01:36:29.325Z,56.28
2022-10-31T01:39:32.241Z,52.80
2022-10-31T01:42:35.181Z,55.35
2022-10-31T01:45:39.209Z,56.40
2022-10-31T01:48:43.494Z,57.15
2022-10-31T01:51:49.044Z,53.47
2022-10-31T01:55:23.165Z,58.80
2022-10-31T01:58:28.510Z,60.28
2022-10-31T02:01:31.467Z,62.93
2022-10-31T02:04:34.443Z,68.88
2022-10-31T02:08:05.523Z,63.80
2022-10-31T02:11:08.443Z,72.13
2022-10-31T02:14:13.223Z,74.53
2022-10-31T02:17:16.307Z,74.83
2022-10-31T02:20:23.210Z,76.25
2022-10-31T02:24:11.092Z,74.80
2022-10-31T02:27:43.447Z,77.85
2022-10-31T02:31:06.875Z,76.53
2022-10-31T02:34:23.696Z,84.80
2022-10-31T02:38:02.685Z,76.70
2022-10-31T02:41:26.420Z,80.78
2022-10-31T02:44:51.672Z,74.47
2022-10-31T02:47:56.432Z,70.72
2022-10-31T02:51:03.144Z,70.60
2022-10-31T02:54:06.073Z,68.97
2022-10-31T02:57:08.956Z,65.07
2022-10-31T03:00:12.324Z,75.63
2022-10-31T03:03:54.641Z,80.25
2022-10-31T03:07:28.733Z,76.77
2022-10-31T03:10:44.960Z,72.55
2022-10-31T03:14:02.039Z,80.57
2022-10-31T03:17:06.757Z,79.50
2022-10-31T03:20:10.063Z,83.53
2022-10-31T03:23:17.504Z,77.73
2022-10-31T03:26:24.783Z,67.90
2022-10-31T03:29:29.381Z,66.55
2022-10-31T03:32:44.727Z,72.00
2022-10-31T03:35:52.178Z,63.47
2022-10-31T03:38:55.068Z,61.73
2022-10-31T03:42:12.009Z,65.70
2022-10-31T03:45:17.033Z,64.22
2022-10-31T03:48:20.681Z,55.00
2022-10-31T03:51:34.029Z,53.72
2022-10-31T03:54:45.022Z,50.17
2022-10-31T03:58:04.417Z,56.50
2022-10-31T04:01:08.839Z,53.65
2022-10-31T04:04:12.423Z,52.88
2022-10-31T04:07:15.359Z,55.90
2022-10-31T04:10:18.407Z,51.07
2022-10-31T04:13:24.242Z,49.83
2022-10-31T04:16:35.289Z,48.40
2022-10-31T04:19:38.247Z,49.50
2022-10-31T04:22:41.138Z,46.22
2022-10-31T04:25:44.026Z,51.83
2022-10-31T04:28:47.057Z,45.72
2022-10-31T04:31:50.006Z,46.78
2022-10-31T04:34:53.798Z,39.55
2022-10-31T04:37:59.258Z,43.53
2022-10-31T04:41:02.194Z,41.37
2022-10-31T04:44:07.896Z,44.13
2022-10-31T04:47:11.026Z,45.95
2022-10-31T04:50:14.036Z,47.92
2022-10-31T04:53:16.987Z,39.83
2022-10-31T04:56:39.783Z,43.53
2022-10-31T04:59:48.992Z,41.85
2022-10-31T05:02:53.877Z,40.42
2022-10-31T05:05:56.762Z,36.70
2022-10-31T05:08:59.702Z,36.75
2022-10-31T05:12:02.687Z,41.60
2022-10-31T05:15:25.056Z,41.85
2022-10-31T05:18:46.420Z,41.17
2022-10-31T05:22:07.854Z,41.58
2022-10-31T05:25:12.407Z,44.50
2022-10-31T05:28:15.315Z,38.00
2022-10-31T05:31:18.467Z,35.75
2022-10-31T05:34:21.397Z,37.75
2022-10-31T05:37:42.912Z,36.35
2022-10-31T05:40:47.534Z,38.47
2022-10-31T05:43:51.853Z,36.70
2022-10-31T05:46:59.599Z,38.75
2022-10-31T05:50:21.355Z,35.13
2022-10-31T05:53:29.025Z,33.97
2022-10-31T05:56:32.010Z,38.15
2022-10-31T05:59:34.965Z,41.63
2022-10-31T06:02:38.397Z,37.03
2022-10-31T06:05:59.821Z,33.17
2022-10-31T06:09:08.602Z,38.85
2022-10-31T06:12:12.920Z,33.70
2022-10-31T06:15:45.023Z,36.87
2022-10-31T06:18:49.290Z,40.40
2022-10-31T06:21:52.229Z,39.63
2022-10-31T06:24:56.150Z,42.13
2022-10-31T06:28:04.842Z,33.42
2022-10-31T06:31:21.123Z,32.60
2022-10-31T06:34:24.170Z,31.08
2022-10-31T06:37:27.089Z,34.17
2022-10-31T06:40:36.685Z,31.80
2022-10-31T06:43:52.461Z,31.77
2022-10-31T06:47:15.589Z,32.50
2022-10-31T06:50:41.388Z,34.78
2022-10-31T06:53:45.886Z,33.03
2022-10-31T06:56:50.347Z,34.10
2022-10-31T06:59:53.319Z,38.05
2022-10-31T07:03:12.450Z,34.50
2022-10-31T07:06:15.680Z,35.90
2022-10-31T07:09:18.775Z,36.85
2022-10-31T07:12:22.412Z,30.33
2022-10-31T07:15:36.076Z,24.73
2022-10-31T07:18:39.304Z,26.57
2022-10-31T07:21:42.513Z,26.95
2022-10-31T07:24:47.335Z,26.17
2022-10-31T07:28:26.293Z,29.95
2022-10-31T07:31:29.637Z,26.88
2022-10-31T07:34:39.043Z,27.47
2022-10-31T07:37:59.340Z,23.45
2022-10-31T07:41:02.658Z,28.63
2022-10-31T07:44:08.227Z,29.17
2022-10-31T07:47:29.581Z,33.38
2022-10-31T07:50:50.911Z,29.93
2022-10-31T07:54:14.034Z,23.40
2022-10-31T07:57:20.199Z,25.08
2022-10-31T08:00:26.060Z,28.08
2022-10-31T08:03:28.994Z,26.45
2022-10-31T08:06:50.608Z,24.17
2022-10-31T08:10:03.525Z,26.40
2022-10-31T08:13:16.906Z,24.60
2022-10-31T08:16:23.042Z,23.70
2022-10-31T08:19:30.815Z,23.02
2022-10-31T08:22:33.748Z,23.50
2022-10-31T08:25:38.878Z,22.17
2022-10-31T08:28:42.321Z,20.20
2022-10-31T08:31:46.013Z,22.60
2022-10-31T08:35:18.125Z,20.63
2022-10-31T08:38:49.964Z,19.77
2022-10-31T08:41:53.791Z,20.45
2022-10-31T08:44:56.755Z,24.10
2022-10-31T08:48:01.073Z,26.80
2022-10-31T08:51:04.444Z,22.90
2022-10-31T08:54:07.797Z,24.07
2022-10-31T08:57:33.456Z,23.45
2022-10-31T09:00:36.799Z,24.63
2022-10-31T09:03:49.391Z,22.02
2022-10-31T09:10:15.627Z,28.27
2022-10-31T09:13:25.131Z,31.25
2022-10-31T09:16:49.420Z,34.30
2022-10-31T09:19:58.307Z,37.05
2022-10-31T09:23:10.121Z,33.75
2022-10-31T09:26:14.572Z,38.90
2022-10-31T09:29:30.631Z,31.77
2022-10-31T09:32:36.110Z,32.42
2022-10-31T09:35:40.055Z,30.30
2022-10-31T09:38:43.554Z,27.73
2022-10-31T09:42:08.384Z,27.43
2022-10-31T09:45:19.446Z,27.83
2022-10-31T09:48:44.128Z,27.90
2022-10-31T09:52:15.083Z,21.65
2022-10-31T09:55:45.465Z,22.52
2022-10-31T09:58:52.553Z,23.90
2022-10-31T10:02:05.609Z,23.02
2022-10-31T10:05:13.170Z,26.13
2022-10-31T10:08:20.040Z,26.67
2022-10-31T10:12:38.459Z,23.85
2022-10-31T10:16:09.952Z,23.47
2022-10-31T10:19:43.684Z,24.80
2022-10-31T10:22:55.546Z,27.25
2022-10-31T10:26:11.086Z,27.05
2022-10-31T10:29:36.588Z,27.00
2022-10-31T10:32:50.873Z,22.77
2022-10-31T10:36:04.526Z,36.22
2022-10-31T10:39:21.781Z,41.17
2022-10-31T10:42:44.718Z,57.58
2022-10-31T10:46:30.552Z,49.45
2022-10-31T10:49:40.776Z,48.43
2022-10-31T10:53:11.637Z,47.08
2022-10-31T10:56:20.865Z,40.80
2022-10-31T10:59:23.784Z,39.05
2022-10-31T11:02:27.979Z,28.05
2022-10-31T11:05:43.432Z,30.10
2022-10-31T11:08:46.374Z,32.33
2022-10-31T11:11:49.285Z,32.90
2022-10-31T11:14:53.234Z,35.67
2022-10-31T11:17:56.683Z,35.95
2022-10-31T11:21:01.471Z,34.40
2022-10-31T11:24:17.564Z,32.47
2022-10-31T11:27:25.022Z,29.75
2022-10-31T11:30:28.045Z,25.13
2022-10-31T11:33:48.371Z,27.50
2022-10-31T11:36:51.357Z,26.23
2022-10-31T11:40:00.285Z,28.60
2022-10-31T11:43:03.259Z,25.35
2022-10-31T11:46:19.786Z,23.92
2022-10-31T11:49:33.535Z,21.08
2022-10-31T11:52:38.594Z,24.30
2022-10-31T11:55:41.515Z,22.10
2022-10-31T11:58:44.407Z,27.80
2022-10-31T12:01:51.876Z,26.77
2022-10-31T12:04:58.034Z,23.25
2022-10-31T12:08:04.389Z,23.30
2022-10-31T12:11:19.785Z,24.20
2022-10-31T12:14:41.763Z,23.20
2022-10-31T12:18:19.889Z,25.50
2022-10-31T12:21:54.391Z,24.95
2022-10-31T12:25:22.387Z,22.93
2022-10-31T12:28:46.205Z,22.48
2022-10-31T12:32:05.905Z,23.27
2022-10-31T12:35:22.801Z,22.73
2022-10-31T12:38:54.845Z,22.65
2022-10-31T12:42:20.246Z,25.30
2022-10-31T12:45:59.085Z,23.15
2022-10-31T12:49:34.223Z,23.50
2022-10-31T12:53:14.104Z,26.25
2022-10-31T12:56:35.991Z,24.15
2022-10-31T12:59:43.178Z,24.50
2022-10-31T13:03:20.489Z,24.00
2022-10-31T13:06:26.914Z,25.52
2022-10-31T13:09:39.916Z,25.45
2022-10-31T13:12:42.878Z,25.42
2022-10-31T13:16:10.560Z,23.67
2022-10-31T13:19:39.149Z,24.65
2022-10-31T13:22:43.137Z,25.00
2022-10-31T13:25:51.959Z,22.60
2022-10-31T13:29:16.985Z,25.30
2022-10-31T13:32:19.903Z,27.93
2022-10-31T13:35:40.071Z,24.38
2022-10-31T13:38:53.888Z,21.70
2022-10-31T13:42:05.681Z,25.65
2022-10-31T13:45:18.617Z,23.95
2022-10-31T13:48:37.292Z,24.03
2022-10-31T13:51:40.185Z,32.80
2022-10-31T13:54:45.067Z,33.40
2022-10-31T13:57:47.971Z,26.35
2022-10-31T14:01:02.461Z,25.63
2022-10-31T14:04:22.173Z,27.87
2022-10-31T14:07:28.732Z,24.70
2022-10-31T14:10:39.441Z,21.92
2022-10-31T14:13:46.329Z,21.55
2022-10-31T14:16:56.505Z,24.75
2022-10-31T14:20:27.295Z,23.43
2022-10-31T14:23:37.292Z,22.85
2022-10-31T14:26:40.204Z,32.75
2022-10-31T14:29:47.978Z,28.42
2022-10-31T14:33:01.552Z,25.52
2022-10-31T14:36:20.110Z,23.73
2022-10-31T14:39:26.783Z,26.08
2022-10-31T14:42:47.787Z,25.23
2022-10-31T14:46:06.308Z,24.80
2022-10-31T14:49:31.877Z,27.63
2022-10-31T14:52:36.109Z,24.87
2022-10-31T14:55:46.443Z,25.67
2022-10-31T14:58:49.434Z,26.90
2022-10-31T15:02:21.984Z,24.80
2022-10-31T15:05:25.045Z,25.75
2022-10-31T15:08:47.404Z,40.70
2022-10-31T15:11:50.329Z,36.50
2022-10-31T15:14:53.413Z,29.75
2022-10-31T15:17:59.003Z,27.45
2022-10-31T15:21:02.176Z,27.33
2022-10-31T15:24:05.182Z,34.20
2022-10-31T15:27:10.951Z,30.88
2022-10-31T15:30:24.048Z,29.25
2022-10-31T15:33:38.104Z,30.90
2022-10-31T15:36:42.127Z,22.80
2022-10-31T15:39:45.588Z,25.90
2022-10-31T15:42:54.397Z,31.30
2022-10-31T15:45:58.448Z,29.58
2022-10-31T15:49:01.451Z,25.52
2022-10-31T15:52:19.590Z,28.83
2022-10-31T15:55:30.288Z,24.00
2022-10-31T15:58:34.808Z,27.02
2022-10-31T16:01:37.807Z,29.38
2022-10-31T16:04:50.186Z,27.58
2022-10-31T16:07:53.603Z,25.73
2022-10-31T16:11:15.442Z,31.43
2022-10-31T16:14:26.414Z,31.77
2022-10-31T16:17:29.335Z,27.27
2022-10-31T16:20:33.099Z,24.25
2022-10-31T16:23:35.998Z,30.83
2022-10-31T16:26:38.944Z,30.70
2022-10-31T16:29:45.931Z,27.63
2022-10-31T16:32:56.716Z,29.70
2022-10-31T16:36:15.704Z,31.10
2022-10-31T16:39:23.157Z,27.98
2022-10-31T16:42:26.100Z,27.57
2022-10-31T16:45:31.433Z,28.08
2022-10-31T16:48:34.328Z,28.38
2022-10-31T16:51:37.299Z,27.08
2022-10-31T16:54:40.212Z,31.25
2022-10-31T16:57:45.367Z,30.73
2022-10-31T17:00:48.375Z,30.27
2022-10-31T17:03:51.366Z,27.50
2022-10-31T17:06:54.270Z,25.85
2022-10-31T17:09:57.169Z,25.33
2022-10-31T17:13:00.177Z,30.43
2022-10-31T17:16:03.660Z,24.60
2022-10-31T17:19:06.551Z,29.55
2022-10-31T17:22:14.015Z,31.67
2022-10-31T17:25:18.696Z,37.40
2022-10-31T17:28:21.681Z,36.90
2022-10-31T17:31:29.699Z,45.33
2022-10-31T17:34:32.690Z,30.15
2022-10-31T17:37:35.801Z,44.53
2022-10-31T17:40:39.600Z,36.25
2022-10-31T17:43:42.610Z,26.00
2022-10-31T17:46:45.562Z,24.38
2022-10-31T17:49:48.502Z,24.45
2022-10-31T17:52:51.635Z,22.13
2022-10-31T17:55:54.679Z,26.10
2022-10-31T17:58:58.236Z,28.73
2022-10-31T18:02:01.667Z,25.20
2022-10-31T18:05:05.588Z,29.42
2022-10-31T18:08:08.503Z,26.67
2022-10-31T18:11:14.644Z,28.15
2022-10-31T18:14:17.558Z,30.63
2022-10-31T18:17:20.606Z,29.30
2022-10-31T18:20:23.526Z,32.85
2022-10-31T18:23:26.581Z,31.63
2022-10-31T18:26:29.615Z,30.73
2022-10-31T18:29:32.515Z,29.83
2022-10-31T18:32:36.424Z,27.17
2022-10-31T18:35:39.602Z,27.70
2022-10-31T18:38:44.936Z,31.55
2022-10-31T18:41:47.951Z,29.48
2022-10-31T18:44:50.894Z,28.37
2022-10-31T18:47:53.859Z,33.05
2022-10-31T18:51:06.138Z,30.50
2022-10-31T18:54:09.157Z,30.58
2022-10-31T18:57:12.108Z,27.73
2022-10-31T19:00:17.440Z,30.17
2022-10-31T19:03:24.942Z,29.27
2022-10-31T19:06:31.065Z,28.45
2022-10-31T19:09:37.071Z,23.60
2022-10-31T19:12:39.956Z,32.25
2022-10-31T19:15:43.493Z,28.23
2022-10-31T19:18:46.467Z,25.95
2022-10-31T19:21:49.385Z,27.67
2022-10-31T19:24:52.295Z,27.85
2022-10-31T19:27:55.213Z,31.25
2022-10-31T19:30:58.299Z,28.00
2022-10-31T19:34:01.207Z,28.80
2022-10-31T19:37:04.135Z,29.20
2022-10-31T19:40:08.497Z,32.60
2022-10-31T19:43:11.449Z,30.92
2022-10-31T19:46:22.227Z,30.50
2022-10-31T19:49:30.859Z,35.75
2022-10-31T19:52:35.123Z,29.70
2022-10-31T19:55:40.852Z,29.05
2022-10-31T19:58:43.766Z,36.38
2022-10-31T20:01:46.715Z,41.90
2022-10-31T20:04:49.723Z,33.90
2022-10-31T20:07:52.677Z,40.83
2022-10-31T20:10:59.904Z,42.80
2022-10-31T20:14:02.858Z,43.22
2022-10-31T20:17:05.764Z,44.67
2022-10-31T20:20:09.276Z,42.90
2022-10-31T20:23:12.468Z,43.85
2022-10-31T20:26:17.111Z,41.75
2022-10-31T20:29:20.091Z,41.83
2022-10-31T20:32:22.994Z,42.43
2022-10-31T20:35:25.906Z,45.10
2022-10-31T20:38:28.800Z,46.10
2022-10-31T20:41:31.732Z,40.22
2022-10-31T20:44:34.681Z,43.30
2022-10-31T20:47:37.581Z,46.20
2022-10-31T20:50:40.508Z,45.85
2022-10-31T20:53:43.405Z,47.70
2022-10-31T20:56:46.426Z,43.03
2022-10-31T20:59:50.020Z,43.15
2022-10-31T21:02:52.903Z,42.77
2022-10-31T21:05:57.394Z,43.92
2022-10-31T21:09:00.426Z,44.45
2022-10-31T21:12:03.356Z,46.42
2022-10-31T21:15:06.604Z,48.22
2022-10-31T21:18:09.625Z,50.40
2022-10-31T21:21:14.584Z,45.08
2022-10-31T21:24:20.733Z,49.63
2022-10-31T21:27:23.899Z,48.20
2022-10-31T21:30:26.803Z,50.15
2022-10-31T21:33:29.682Z,46.27
2022-10-31T21:36:32.746Z,52.05
2022-10-31T21:39:35.638Z,44.17
2022-10-31T21:42:38.530Z,47.88
2022-10-31T21:45:41.427Z,49.63
2022-10-31T21:48:44.717Z,47.20
2022-10-31T21:51:47.630Z,43.22
2022-10-31T21:54:50.532Z,44.90
2022-10-31T21:57:53.427Z,41.25
2022-10-31T22:01:00.594Z,40.13
2022-10-31T22:04:03.902Z,38.43
2022-10-31T22:07:07.027Z,38.00
2022-10-31T22:10:10.171Z,37.42
2022-10-31T22:13:13.055Z,37.08
2022-10-31T22:16:17.643Z,37.30
2022-10-31T22:19:20.541Z,40.07
2022-10-31T22:22:23.429Z,38.78
2022-10-31T22:25:26.332Z,37.13
2022-10-31T22:28:32.909Z,36.85
2022-10-31T22:31:37.462Z,38.30
2022-10-31T22:34:40.356Z,35.43
2022-10-31T22:37:43.245Z,35.15
2022-10-31T22:40:46.147Z,36.03
2022-10-31T22:43:49.271Z,34.97
2022-10-31T22:46:52.179Z,36.63
2022-10-31T22:49:55.076Z,33.20
2022-10-31T22:52:57.959Z,29.75
2022-10-31T22:56:00.951Z,29.75
2022-10-31T22:59:03.972Z,31.92
2022-10-31T23:02:08.750Z,32.45
2022-10-31T23:05:14.503Z,36.97
2022-10-31T23:08:17.389Z,29.83
2022-10-31T23:11:23.491Z,32.75
2022-10-31T23:14:26.387Z,29.77
2022-10-31T23:17:29.302Z,35.20
2022-10-31T23:20:32.210Z,28.60
2022-10-31T23:23:36.219Z,33.33
2022-10-31T23:26:58.427Z,31.13
2022-10-31T23:30:02.094Z,29.65
2022-10-31T23:33:05.267Z,34.78
2022-10-31T23:36:08.431Z,26.70
2022-10-31T23:39:11.325Z,26.83
2022-10-31T23:42:14.291Z,26.58
2022-10-31T23:45:17.301Z,29.88
2022-10-31T23:48:22.499Z,25.77
2022-10-31T23:51:25.425Z,27.80
2022-10-31T23:54:28.455Z,24.70
2022-10-31T23:57:31.418Z,29.85
